sensor_id;sensor_type;location;lat;lon;timestamp;pressure;altitude;pressure_sealevel;temperature;humidity
11415;BME280;5763;42.714;23.244;2023-02-22T00:00:12;94550.41;;;12.99;35.37
11415;BME280;5763;42.714;23.244;2023-02-22T00:02:48;94547.13;;;12.86;35.67
11415;BME280;5763;42.714;23.244;2023-02-22T00:05:16;94549.09;;;12.85;35.83
11415;BME280;5763;42.714;23.244;2023-02-22T00:07:45;94539.22;;;12.79;35.90
11415;BME280;5763;42.714;23.244;2023-02-22T00:10:15;94551.34;;;12.63;36.27
11415;BME280;5763;42.714;23.244;2023-02-22T00:12:45;94543.53;;;12.47;36.49
11415;BME280;5763;42.714;23.244;2023-02-22T00:15:14;94545.66;;;12.43;36.32
11415;BME280;5763;42.714;23.244;2023-02-22T00:17:42;94552.53;;;12.39;36.69
11415;BME280;5763;42.714;23.244;2023-02-22T00:20:10;94543.41;;;12.33;36.84
11415;BME280;5763;42.714;23.244;2023-02-22T00:22:39;94546.34;;;12.29;36.98
11415;BME280;5763;42.714;23.244;2023-02-22T00:25:07;94550.31;;;12.28;36.94
11415;BME280;5763;42.714;23.244;2023-02-22T00:27:35;94542.28;;;12.16;37.13
11415;BME280;5763;42.714;23.244;2023-02-22T00:30:02;94542.75;;;12.05;37.39
11415;BME280;5763;42.714;23.244;2023-02-22T00:32:29;94539.25;;;12.14;37.34
11415;BME280;5763;42.714;23.244;2023-02-22T00:34:56;94543.97;;;12.13;37.38
11415;BME280;5763;42.714;23.244;2023-02-22T00:37:23;94531.66;;;12.09;37.78
11415;BME280;5763;42.714;23.244;2023-02-22T00:39:50;94537.50;;;11.93;37.39
11415;BME280;5763;42.714;23.244;2023-02-22T00:42:17;94530.88;;;12.08;37.01
11415;BME280;5763;42.714;23.244;2023-02-22T00:44:45;94521.41;;;12.09;36.85
11415;BME280;5763;42.714;23.244;2023-02-22T00:47:12;94518.41;;;12.07;36.44
11415;BME280;5763;42.714;23.244;2023-02-22T00:49:39;94515.66;;;12.07;35.85
11415;BME280;5763;42.714;23.244;2023-02-22T00:52:06;94512.56;;;12.14;35.60
11415;BME280;5763;42.714;23.244;2023-02-22T00:54:33;94516.44;;;11.99;36.01
11415;BME280;5763;42.714;23.244;2023-02-22T00:57:01;94514.44;;;11.99;36.12
11415;BME280;5763;42.714;23.244;2023-02-22T00:59:28;94513.13;;;11.86;36.41
11415;BME280;5763;42.714;23.244;2023-02-22T01:01:57;94514.72;;;11.69;36.74
11415;BME280;5763;42.714;23.244;2023-02-22T01:04:24;94514.72;;;11.51;37.17
11415;BME280;5763;42.714;23.244;2023-02-22T01:06:51;94494.97;;;11.38;37.39
11415;BME280;5763;42.714;23.244;2023-02-22T01:09:18;94509.84;;;11.46;37.34
11415;BME280;5763;42.714;23.244;2023-02-22T01:11:46;94511.69;;;11.49;37.34
11415;BME280;5763;42.714;23.244;2023-02-22T01:14:12;94510.00;;;11.51;37.68
11415;BME280;5763;42.714;23.244;2023-02-22T01:16:39;94506.81;;;11.53;37.60
11415;BME280;5763;42.714;23.244;2023-02-22T01:19:08;94499.94;;;11.48;37.80
11415;BME280;5763;42.714;23.244;2023-02-22T01:21:38;94501.16;;;11.47;38.03
11415;BME280;5763;42.714;23.244;2023-02-22T01:24:05;94505.44;;;11.48;37.67
11415;BME280;5763;42.714;23.244;2023-02-22T01:26:32;94499.38;;;11.44;37.55
11415;BME280;5763;42.714;23.244;2023-02-22T01:28:59;94502.69;;;11.48;37.83
11415;BME280;5763;42.714;23.244;2023-02-22T01:31:26;94507.38;;;11.57;37.75
11415;BME280;5763;42.714;23.244;2023-02-22T01:33:53;94501.91;;;11.57;37.59
11415;BME280;5763;42.714;23.244;2023-02-22T01:36:21;94506.03;;;11.52;37.74
11415;BME280;5763;42.714;23.244;2023-02-22T01:38:48;94498.28;;;11.51;37.92
11415;BME280;5763;42.714;23.244;2023-02-22T01:41:15;94503.16;;;11.47;38.15
11415;BME280;5763;42.714;23.244;2023-02-22T01:43:42;94506.38;;;11.45;38.19
11415;BME280;5763;42.714;23.244;2023-02-22T01:46:19;94506.09;;;11.34;38.26
11415;BME280;5763;42.714;23.244;2023-02-22T01:48:48;94505.16;;;11.28;38.12
11415;BME280;5763;42.714;23.244;2023-02-22T01:51:19;94511.25;;;11.23;38.38
11415;BME280;5763;42.714;23.244;2023-02-22T01:53:51;94511.28;;;11.14;38.54
11415;BME280;5763;42.714;23.244;2023-02-22T01:56:20;94501.22;;;11.02;38.92
11415;BME280;5763;42.714;23.244;2023-02-22T01:58:53;94514.00;;;11.14;39.01
11415;BME280;5763;42.714;23.244;2023-02-22T02:01:23;94503.97;;;11.20;39.17
11415;BME280;5763;42.714;23.244;2023-02-22T02:03:51;94501.97;;;11.21;38.74
11415;BME280;5763;42.714;23.244;2023-02-22T02:06:22;94507.59;;;11.17;39.02
11415;BME280;5763;42.714;23.244;2023-02-22T02:08:56;94503.34;;;11.16;39.25
11415;BME280;5763;42.714;23.244;2023-02-22T02:11:25;94505.19;;;11.10;39.38
11415;BME280;5763;42.714;23.244;2023-02-22T02:13:53;94505.31;;;11.16;39.12
11415;BME280;5763;42.714;23.244;2023-02-22T02:16:21;94503.19;;;11.11;39.35
11415;BME280;5763;42.714;23.244;2023-02-22T02:18:49;94512.34;;;11.17;39.39
11415;BME280;5763;42.714;23.244;2023-02-22T02:21:40;94502.44;;;11.01;39.81
11415;BME280;5763;42.714;23.244;2023-02-22T02:24:35;94508.97;;;11.04;39.71
11415;BME280;5763;42.714;23.244;2023-02-22T02:27:10;94511.72;;;11.04;39.59
11415;BME280;5763;42.714;23.244;2023-02-22T02:32:50;94513.69;;;10.85;39.89
11415;BME280;5763;42.714;23.244;2023-02-22T02:35:22;94518.25;;;10.79;40.06
11415;BME280;5763;42.714;23.244;2023-02-22T02:37:56;94513.53;;;10.71;40.21
11415;BME280;5763;42.714;23.244;2023-02-22T02:40:30;94516.72;;;10.69;40.47
11415;BME280;5763;42.714;23.244;2023-02-22T02:43:05;94478.97;;;10.46;40.27
11415;BME280;5763;42.714;23.244;2023-02-22T02:45:38;94508.94;;;10.59;40.46
11415;BME280;5763;42.714;23.244;2023-02-22T02:48:09;94516.56;;;10.55;40.47
11415;BME280;5763;42.714;23.244;2023-02-22T02:50:41;94510.47;;;10.51;40.74
11415;BME280;5763;42.714;23.244;2023-02-22T02:53:12;94511.22;;;10.51;41.00
11415;BME280;5763;42.714;23.244;2023-02-22T02:55:42;94512.41;;;10.41;41.02
11415;BME280;5763;42.714;23.244;2023-02-22T02:58:17;94513.31;;;10.38;41.16
11415;BME280;5763;42.714;23.244;2023-02-22T03:00:44;94528.06;;;10.41;41.39
11415;BME280;5763;42.714;23.244;2023-02-22T03:03:43;94520.13;;;10.25;41.45
11415;BME280;5763;42.714;23.244;2023-02-22T03:06:31;94525.84;;;10.18;41.26
11415;BME280;5763;42.714;23.244;2023-02-22T03:09:09;94521.06;;;10.00;41.98
11415;BME280;5763;42.714;23.244;2023-02-22T03:11:43;94526.81;;;9.93;42.26
11415;BME280;5763;42.714;23.244;2023-02-22T03:14:20;94520.38;;;9.78;42.59
11415;BME280;5763;42.714;23.244;2023-02-22T03:16:51;94529.91;;;9.74;43.33
11415;BME280;5763;42.714;23.244;2023-02-22T03:19:27;94524.13;;;9.72;42.96
11415;BME280;5763;42.714;23.244;2023-02-22T03:22:02;94511.75;;;9.58;43.31
11415;BME280;5763;42.714;23.244;2023-02-22T03:24:37;94522.06;;;9.54;43.42
11415;BME280;5763;42.714;23.244;2023-02-22T03:27:11;94518.13;;;9.55;43.37
11415;BME280;5763;42.714;23.244;2023-02-22T03:29:42;94522.69;;;9.58;43.61
11415;BME280;5763;42.714;23.244;2023-02-22T03:32:14;94527.28;;;9.61;43.79
11415;BME280;5763;42.714;23.244;2023-02-22T03:34:45;94520.00;;;9.67;43.57
11415;BME280;5763;42.714;23.244;2023-02-22T03:37:20;94521.44;;;9.81;43.18
11415;BME280;5763;42.714;23.244;2023-02-22T03:39:50;94520.06;;;9.85;43.25
11415;BME280;5763;42.714;23.244;2023-02-22T03:42:20;94522.84;;;9.94;43.04
11415;BME280;5763;42.714;23.244;2023-02-22T03:44:52;94518.47;;;9.97;42.85
11415;BME280;5763;42.714;23.244;2023-02-22T03:47:22;94518.41;;;10.09;42.44
11415;BME280;5763;42.714;23.244;2023-02-22T03:49:57;94522.06;;;10.15;42.48
11415;BME280;5763;42.714;23.244;2023-02-22T03:52:31;94524.09;;;10.24;42.12
11415;BME280;5763;42.714;23.244;2023-02-22T03:54:59;94514.03;;;10.21;42.08
11415;BME280;5763;42.714;23.244;2023-02-22T03:57:29;94519.53;;;10.39;41.64
11415;BME280;5763;42.714;23.244;2023-02-22T03:59:58;94516.22;;;10.44;41.44
11415;BME280;5763;42.714;23.244;2023-02-22T04:02:25;94517.75;;;10.45;41.73
11415;BME280;5763;42.714;23.244;2023-02-22T04:04:52;94518.53;;;10.54;41.53
11415;BME280;5763;42.714;23.244;2023-02-22T04:07:20;94493.25;;;10.41;41.46
11415;BME280;5763;42.714;23.244;2023-02-22T04:09:47;94516.41;;;10.67;41.46
11415;BME280;5763;42.714;23.244;2023-02-22T04:12:14;94520.97;;;10.70;41.77
11415;BME280;5763;42.714;23.244;2023-02-22T04:14:41;94501.22;;;10.57;41.79
11415;BME280;5763;42.714;23.244;2023-02-22T04:17:07;94519.63;;;10.66;41.61
11415;BME280;5763;42.714;23.244;2023-02-22T04:19:34;94514.28;;;10.62;41.79
11415;BME280;5763;42.714;23.244;2023-02-22T04:22:01;94515.81;;;10.63;41.66
11415;BME280;5763;42.714;23.244;2023-02-22T04:24:29;94521.56;;;10.56;42.02
11415;BME280;5763;42.714;23.244;2023-02-22T04:26:56;94518.66;;;10.51;42.04
11415;BME280;5763;42.714;23.244;2023-02-22T04:29:22;94528.72;;;10.63;41.80
11415;BME280;5763;42.714;23.244;2023-02-22T04:31:49;94532.81;;;10.58;41.83
11415;BME280;5763;42.714;23.244;2023-02-22T04:34:16;94529.63;;;10.51;42.24
11415;BME280;5763;42.714;23.244;2023-02-22T04:36:43;94523.81;;;10.49;42.29
11415;BME280;5763;42.714;23.244;2023-02-22T04:39:10;94523.06;;;10.48;42.26
11415;BME280;5763;42.714;23.244;2023-02-22T04:41:38;94525.38;;;10.50;42.23
11415;BME280;5763;42.714;23.244;2023-02-22T04:44:05;94517.88;;;10.32;42.68
11415;BME280;5763;42.714;23.244;2023-02-22T04:46:32;94505.97;;;10.17;43.09
11415;BME280;5763;42.714;23.244;2023-02-22T04:48:58;94510.53;;;10.11;42.99
11415;BME280;5763;42.714;23.244;2023-02-22T04:51:25;94523.22;;;10.05;43.46
11415;BME280;5763;42.714;23.244;2023-02-22T04:53:52;94523.13;;;10.09;43.41
11415;BME280;5763;42.714;23.244;2023-02-22T04:56:19;94520.53;;;10.14;43.07
11415;BME280;5763;42.714;23.244;2023-02-22T04:58:47;94519.31;;;10.06;43.19
11415;BME280;5763;42.714;23.244;2023-02-22T05:01:15;94532.00;;;10.00;43.42
11415;BME280;5763;42.714;23.244;2023-02-22T05:03:42;94531.84;;;9.95;43.54
11415;BME280;5763;42.714;23.244;2023-02-22T05:06:09;94536.22;;;9.92;43.57
11415;BME280;5763;42.714;23.244;2023-02-22T05:08:36;94537.66;;;9.75;43.78
11415;BME280;5763;42.714;23.244;2023-02-22T05:11:03;94537.34;;;9.73;43.83
11415;BME280;5763;42.714;23.244;2023-02-22T05:13:30;94538.75;;;9.78;44.01
11415;BME280;5763;42.714;23.244;2023-02-22T05:15:58;94537.66;;;9.75;44.08
11415;BME280;5763;42.714;23.244;2023-02-22T05:18:25;94540.97;;;9.70;44.25
11415;BME280;5763;42.714;23.244;2023-02-22T05:20:52;94542.75;;;9.64;44.32
11415;BME280;5763;42.714;23.244;2023-02-22T05:23:19;94550.06;;;9.67;44.38
11415;BME280;5763;42.714;23.244;2023-02-22T05:25:45;94545.94;;;9.63;44.19
11415;BME280;5763;42.714;23.244;2023-02-22T05:28:13;94541.81;;;9.58;44.40
11415;BME280;5763;42.714;23.244;2023-02-22T05:30:41;94551.16;;;9.48;44.60
11415;BME280;5763;42.714;23.244;2023-02-22T05:33:09;94549.31;;;9.45;44.63
11415;BME280;5763;42.714;23.244;2023-02-22T05:35:36;94557.75;;;9.38;44.88
11415;BME280;5763;42.714;23.244;2023-02-22T05:38:03;94558.16;;;9.28;44.90
11415;BME280;5763;42.714;23.244;2023-02-22T05:40:31;94560.69;;;9.22;45.36
11415;BME280;5763;42.714;23.244;2023-02-22T05:42:58;94563.75;;;9.24;45.67
11415;BME280;5763;42.714;23.244;2023-02-22T05:45:26;94571.25;;;9.33;45.22
11415;BME280;5763;42.714;23.244;2023-02-22T05:47:53;94570.72;;;9.25;45.72
11415;BME280;5763;42.714;23.244;2023-02-22T05:50:22;94572.56;;;9.28;46.08
11415;BME280;5763;42.714;23.244;2023-02-22T05:52:50;94566.13;;;9.22;45.82
11415;BME280;5763;42.714;23.244;2023-02-22T05:55:19;94574.28;;;9.35;45.73
11415;BME280;5763;42.714;23.244;2023-02-22T05:57:46;94579.28;;;9.36;45.69
11415;BME280;5763;42.714;23.244;2023-02-22T06:00:17;94588.44;;;9.42;45.82
11415;BME280;5763;42.714;23.244;2023-02-22T06:02:52;94591.31;;;9.39;45.78
11415;BME280;5763;42.714;23.244;2023-02-22T06:05:19;94586.91;;;9.41;45.85
11415;BME280;5763;42.714;23.244;2023-02-22T06:07:47;94582.66;;;9.40;45.63
11415;BME280;5763;42.714;23.244;2023-02-22T06:10:14;94584.63;;;9.40;45.87
11415;BME280;5763;42.714;23.244;2023-02-22T06:12:41;94587.22;;;9.43;46.03
11415;BME280;5763;42.714;23.244;2023-02-22T06:15:08;94583.19;;;9.48;46.00
11415;BME280;5763;42.714;23.244;2023-02-22T06:17:35;94583.28;;;9.44;45.99
11415;BME280;5763;42.714;23.244;2023-02-22T06:20:04;94594.28;;;9.53;45.40
11415;BME280;5763;42.714;23.244;2023-02-22T06:22:32;94592.31;;;9.54;45.84
11415;BME280;5763;42.714;23.244;2023-02-22T06:25:01;94595.88;;;9.63;45.48
11415;BME280;5763;42.714;23.244;2023-02-22T06:27:30;94578.59;;;9.66;45.16
11415;BME280;5763;42.714;23.244;2023-02-22T06:29:57;94593.47;;;9.65;44.96
11415;BME280;5763;42.714;23.244;2023-02-22T06:32:24;94587.78;;;9.81;44.78
11415;BME280;5763;42.714;23.244;2023-02-22T06:34:51;94582.63;;;9.83;44.53
11415;BME280;5763;42.714;23.244;2023-02-22T06:37:18;94576.31;;;9.95;44.87
11415;BME280;5763;42.714;23.244;2023-02-22T06:39:45;94582.84;;;9.98;44.71
11415;BME280;5763;42.714;23.244;2023-02-22T06:42:13;94588.22;;;10.01;44.46
11415;BME280;5763;42.714;23.244;2023-02-22T06:44:40;94592.22;;;10.09;43.95
11415;BME280;5763;42.714;23.244;2023-02-22T06:47:07;94600.47;;;10.18;43.48
11415;BME280;5763;42.714;23.244;2023-02-22T06:49:33;94595.63;;;10.31;43.54
11415;BME280;5763;42.714;23.244;2023-02-22T06:52:02;94602.41;;;10.48;43.35
11415;BME280;5763;42.714;23.244;2023-02-22T06:54:29;94596.50;;;10.50;43.06
11415;BME280;5763;42.714;23.244;2023-02-22T06:56:56;94586.16;;;10.54;43.09
11415;BME280;5763;42.714;23.244;2023-02-22T06:59:24;94590.16;;;10.71;42.62
11415;BME280;5763;42.714;23.244;2023-02-22T07:01:52;94591.38;;;10.79;42.03
11415;BME280;5763;42.714;23.244;2023-02-22T07:04:19;94590.97;;;10.89;42.46
11415;BME280;5763;42.714;23.244;2023-02-22T07:06:46;94586.25;;;10.99;42.18
11415;BME280;5763;42.714;23.244;2023-02-22T07:09:13;94578.50;;;11.06;42.06
11415;BME280;5763;42.714;23.244;2023-02-22T07:11:41;94586.41;;;11.13;41.75
11415;BME280;5763;42.714;23.244;2023-02-22T07:14:08;94593.44;;;11.14;42.02
11415;BME280;5763;42.714;23.244;2023-02-22T07:16:36;94591.28;;;11.18;42.35
11415;BME280;5763;42.714;23.244;2023-02-22T07:19:03;94596.63;;;11.40;42.07
11415;BME280;5763;42.714;23.244;2023-02-22T07:21:30;94599.81;;;11.47;41.59
11415;BME280;5763;42.714;23.244;2023-02-22T07:23:57;94596.00;;;11.54;41.67
11415;BME280;5763;42.714;23.244;2023-02-22T07:26:25;94591.59;;;11.47;41.60
11415;BME280;5763;42.714;23.244;2023-02-22T07:28:52;94591.13;;;11.49;41.31
11415;BME280;5763;42.714;23.244;2023-02-22T07:31:19;94591.91;;;11.49;41.31
11415;BME280;5763;42.714;23.244;2023-02-22T07:33:48;94579.41;;;11.57;41.33
11415;BME280;5763;42.714;23.244;2023-02-22T07:36:15;94582.47;;;11.59;40.91
11415;BME280;5763;42.714;23.244;2023-02-22T07:38:43;94581.56;;;11.80;40.61
11415;BME280;5763;42.714;23.244;2023-02-22T07:41:10;94579.66;;;12.04;39.83
11415;BME280;5763;42.714;23.244;2023-02-22T07:43:36;94582.63;;;12.24;39.88
11415;BME280;5763;42.714;23.244;2023-02-22T07:46:03;94586.06;;;12.43;39.45
11415;BME280;5763;42.714;23.244;2023-02-22T07:48:31;94577.22;;;12.71;39.76
11415;BME280;5763;42.714;23.244;2023-02-22T07:50:59;94577.72;;;12.93;39.25
11415;BME280;5763;42.714;23.244;2023-02-22T07:53:27;94569.41;;;13.26;38.90
11415;BME280;5763;42.714;23.244;2023-02-22T07:55:55;94575.44;;;13.39;38.43
11415;BME280;5763;42.714;23.244;2023-02-22T07:58:25;94573.75;;;13.41;38.35
11415;BME280;5763;42.714;23.244;2023-02-22T08:00:53;94567.78;;;13.57;37.97
11415;BME280;5763;42.714;23.244;2023-02-22T08:03:22;94577.31;;;13.85;37.63
11415;BME280;5763;42.714;23.244;2023-02-22T08:05:51;94576.19;;;14.06;37.36
11415;BME280;5763;42.714;23.244;2023-02-22T08:08:19;94562.25;;;14.24;37.28
11415;BME280;5763;42.714;23.244;2023-02-22T08:10:47;94561.66;;;14.49;36.88
11415;BME280;5763;42.714;23.244;2023-02-22T08:13:15;94574.13;;;14.79;35.89
11415;BME280;5763;42.714;23.244;2023-02-22T08:15:42;94554.16;;;15.04;35.58
11415;BME280;5763;42.714;23.244;2023-02-22T08:18:11;94561.41;;;15.22;35.08
11415;BME280;5763;42.714;23.244;2023-02-22T08:20:39;94564.13;;;15.36;34.71
11415;BME280;5763;42.714;23.244;2023-02-22T08:23:07;94569.06;;;15.52;34.24
11415;BME280;5763;42.714;23.244;2023-02-22T08:25:36;94567.47;;;15.66;34.10
11415;BME280;5763;42.714;23.244;2023-02-22T08:28:05;94558.34;;;15.80;34.03
11415;BME280;5763;42.714;23.244;2023-02-22T08:30:33;94563.16;;;16.10;33.74
11415;BME280;5763;42.714;23.244;2023-02-22T08:33:01;94570.31;;;16.28;32.81
11415;BME280;5763;42.714;23.244;2023-02-22T08:35:28;94563.53;;;16.54;32.56
11415;BME280;5763;42.714;23.244;2023-02-22T08:37:57;94555.75;;;16.89;32.30
11415;BME280;5763;42.714;23.244;2023-02-22T08:40:26;94563.44;;;17.16;31.96
11415;BME280;5763;42.714;23.244;2023-02-22T08:42:54;94549.28;;;17.46;31.34
11415;BME280;5763;42.714;23.244;2023-02-22T08:45:21;94559.41;;;17.76;31.08
11415;BME280;5763;42.714;23.244;2023-02-22T08:47:49;94551.44;;;18.00;30.52
11415;BME280;5763;42.714;23.244;2023-02-22T08:50:17;94557.25;;;18.18;30.23
11415;BME280;5763;42.714;23.244;2023-02-22T08:52:44;94549.22;;;18.43;30.12
11415;BME280;5763;42.714;23.244;2023-02-22T08:55:11;94554.75;;;18.65;29.89
11415;BME280;5763;42.714;23.244;2023-02-22T08:57:39;94547.19;;;18.93;29.49
11415;BME280;5763;42.714;23.244;2023-02-22T09:00:08;94550.44;;;19.08;29.57
11415;BME280;5763;42.714;23.244;2023-02-22T09:02:35;94559.44;;;19.36;28.99
11415;BME280;5763;42.714;23.244;2023-02-22T09:05:02;94546.03;;;19.45;29.00
11415;BME280;5763;42.714;23.244;2023-02-22T09:07:30;94551.97;;;19.77;28.32
11415;BME280;5763;42.714;23.244;2023-02-22T09:09:57;94548.34;;;19.93;28.52
11415;BME280;5763;42.714;23.244;2023-02-22T09:12:24;94550.53;;;20.11;28.50
11415;BME280;5763;42.714;23.244;2023-02-22T09:14:51;94538.06;;;20.23;28.40
11415;BME280;5763;42.714;23.244;2023-02-22T09:17:19;94539.03;;;20.31;27.96
11415;BME280;5763;42.714;23.244;2023-02-22T09:19:46;94543.28;;;20.67;27.61
11415;BME280;5763;42.714;23.244;2023-02-22T09:22:13;94546.66;;;20.89;26.98
11415;BME280;5763;42.714;23.244;2023-02-22T09:24:40;94539.28;;;20.92;27.31
11415;BME280;5763;42.714;23.244;2023-02-22T09:27:07;94533.63;;;21.03;26.80
11415;BME280;5763;42.714;23.244;2023-02-22T09:29:36;94540.06;;;21.16;27.28
11415;BME280;5763;42.714;23.244;2023-02-22T09:32:04;94530.66;;;21.19;26.68
11415;BME280;5763;42.714;23.244;2023-02-22T09:34:32;94532.09;;;21.50;26.61
11415;BME280;5763;42.714;23.244;2023-02-22T09:37:00;94526.78;;;21.70;25.99
11415;BME280;5763;42.714;23.244;2023-02-22T09:39:29;94534.25;;;21.38;26.48
11415;BME280;5763;42.714;23.244;2023-02-22T09:42:08;94531.72;;;21.59;26.66
11415;BME280;5763;42.714;23.244;2023-02-22T09:44:41;94511.38;;;21.45;26.19
11415;BME280;5763;42.714;23.244;2023-02-22T09:47:14;94523.94;;;21.52;25.81
11415;BME280;5763;42.714;23.244;2023-02-22T09:49:51;94490.31;;;21.50;25.67
11415;BME280;5763;42.714;23.244;2023-02-22T09:52:24;94517.75;;;22.01;25.74
11415;BME280;5763;42.714;23.244;2023-02-22T09:55:00;94511.72;;;22.16;25.64
11415;BME280;5763;42.714;23.244;2023-02-22T09:57:33;94517.28;;;22.34;25.37
11415;BME280;5763;42.714;23.244;2023-02-22T10:00:06;94509.97;;;22.31;24.77
11415;BME280;5763;42.714;23.244;2023-02-22T10:02:44;94512.72;;;22.18;25.01
11415;BME280;5763;42.714;23.244;2023-02-22T10:05:17;94505.66;;;22.30;25.60
11415;BME280;5763;42.714;23.244;2023-02-22T10:07:51;94499.34;;;22.48;25.01
11415;BME280;5763;42.714;23.244;2023-02-22T10:10:22;94498.31;;;22.64;24.83
11415;BME280;5763;42.714;23.244;2023-02-22T10:12:58;94498.44;;;22.85;24.60
11415;BME280;5763;42.714;23.244;2023-02-22T10:15:35;94488.41;;;23.21;23.83
11415;BME280;5763;42.714;23.244;2023-02-22T10:21:24;94471.88;;;23.49;23.76
11415;BME280;5763;42.714;23.244;2023-02-22T10:24:01;94478.41;;;23.38;23.37
11415;BME280;5763;42.714;23.244;2023-02-22T10:26:33;94467.13;;;23.05;23.34
11415;BME280;5763;42.714;23.244;2023-02-22T10:29:04;94467.13;;;23.05;23.53
11415;BME280;5763;42.714;23.244;2023-02-22T10:31:37;94463.03;;;22.93;23.93
11415;BME280;5763;42.714;23.244;2023-02-22T10:34:13;94424.41;;;22.97;23.38
11415;BME280;5763;42.714;23.244;2023-02-22T10:36:42;94451.88;;;23.32;23.29
11415;BME280;5763;42.714;23.244;2023-02-22T10:39:19;94439.84;;;23.37;23.54
11415;BME280;5763;42.714;23.244;2023-02-22T10:41:50;94438.63;;;23.71;23.46
11415;BME280;5763;42.714;23.244;2023-02-22T10:44:18;94439.78;;;23.76;23.31
11415;BME280;5763;42.714;23.244;2023-02-22T10:46:46;94433.13;;;24.12;23.04
11415;BME280;5763;42.714;23.244;2023-02-22T10:49:17;94432.56;;;24.55;22.40
11415;BME280;5763;42.714;23.244;2023-02-22T10:51:56;94432.47;;;24.60;21.89
11415;BME280;5763;42.714;23.244;2023-02-22T10:54:29;94429.84;;;24.42;21.89
11415;BME280;5763;42.714;23.244;2023-02-22T10:56:57;94423.25;;;24.32;21.28
11415;BME280;5763;42.714;23.244;2023-02-22T10:59:31;94417.38;;;24.43;21.85
11415;BME280;5763;42.714;23.244;2023-02-22T11:01:59;94414.28;;;24.54;21.70
11415;BME280;5763;42.714;23.244;2023-02-22T11:04:27;94415.31;;;24.64;21.67
11415;BME280;5763;42.714;23.244;2023-02-22T11:07:18;94412.81;;;24.81;20.56
11415;BME280;5763;42.714;23.244;2023-02-22T11:09:48;94402.88;;;24.72;20.68
11415;BME280;5763;42.714;23.244;2023-02-22T11:12:18;94404.41;;;24.73;20.86
11415;BME280;5763;42.714;23.244;2023-02-22T11:14:45;94406.00;;;25.25;20.10
11415;BME280;5763;42.714;23.244;2023-02-22T11:17:17;94396.81;;;25.45;20.07
11415;BME280;5763;42.714;23.244;2023-02-22T11:19:48;94392.66;;;25.38;19.24
11415;BME280;5763;42.714;23.244;2023-02-22T11:22:22;94377.66;;;25.28;19.49
11415;BME280;5763;42.714;23.244;2023-02-22T11:24:54;94386.75;;;25.57;19.45
11415;BME280;5763;42.714;23.244;2023-02-22T11:27:30;94382.28;;;25.54;19.56
11415;BME280;5763;42.714;23.244;2023-02-22T11:30:09;94383.81;;;25.70;19.15
11415;BME280;5763;42.714;23.244;2023-02-22T11:32:42;94379.81;;;26.01;18.79
11415;BME280;5763;42.714;23.244;2023-02-22T11:35:32;94380.88;;;25.90;18.85
11415;BME280;5763;42.714;23.244;2023-02-22T11:38:19;94367.13;;;26.07;18.60
11415;BME280;5763;42.714;23.244;2023-02-22T11:41:04;94367.75;;;25.78;18.84
11415;BME280;5763;42.714;23.244;2023-02-22T11:43:32;94375.78;;;25.66;18.34
11415;BME280;5763;42.714;23.244;2023-02-22T11:46:02;94371.13;;;25.69;18.75
11415;BME280;5763;42.714;23.244;2023-02-22T11:48:32;94374.59;;;26.05;18.29
11415;BME280;5763;42.714;23.244;2023-02-22T11:51:25;94359.25;;;26.13;18.17
11415;BME280;5763;42.714;23.244;2023-02-22T11:54:15;94358.91;;;26.54;17.89
11415;BME280;5763;42.714;23.244;2023-02-22T11:56:51;94349.53;;;26.07;17.92
11415;BME280;5763;42.714;23.244;2023-02-22T11:59:26;94354.69;;;25.88;18.26
11415;BME280;5763;42.714;23.244;2023-02-22T12:02:04;94363.22;;;25.60;18.03
11415;BME280;5763;42.714;23.244;2023-02-22T12:04:54;94345.28;;;25.55;18.35
11415;BME280;5763;42.714;23.244;2023-02-22T12:07:39;94341.03;;;25.77;18.58
11415;BME280;5763;42.714;23.244;2023-02-22T12:10:18;94341.28;;;26.16;18.36
11415;BME280;5763;42.714;23.244;2023-02-22T12:12:57;94343.75;;;26.27;17.74
11415;BME280;5763;42.714;23.244;2023-02-22T12:15:28;94338.69;;;26.26;17.83
11415;BME280;5763;42.714;23.244;2023-02-22T12:18:01;94339.78;;;26.08;18.01
11415;BME280;5763;42.714;23.244;2023-02-22T12:20:36;94333.81;;;26.34;17.85
11415;BME280;5763;42.714;23.244;2023-02-22T12:23:12;94327.81;;;26.75;17.72
11415;BME280;5763;42.714;23.244;2023-02-22T12:25:52;94330.19;;;26.93;17.09
11415;BME280;5763;42.714;23.244;2023-02-22T12:28:27;94327.75;;;26.97;17.11
11415;BME280;5763;42.714;23.244;2023-02-22T12:31:04;94325.56;;;26.81;17.40
11415;BME280;5763;42.714;23.244;2023-02-22T12:33:40;94326.16;;;26.57;17.16
11415;BME280;5763;42.714;23.244;2023-02-22T12:36:10;94314.53;;;26.75;17.35
11415;BME280;5763;42.714;23.244;2023-02-22T12:38:42;94317.81;;;27.04;17.27
11415;BME280;5763;42.714;23.244;2023-02-22T12:41:17;94319.50;;;27.14;17.16
11415;BME280;5763;42.714;23.244;2023-02-22T12:43:50;94315.72;;;27.27;17.42
11415;BME280;5763;42.714;23.244;2023-02-22T12:46:20;94311.25;;;27.09;17.67
11415;BME280;5763;42.714;23.244;2023-02-22T12:48:53;94323.22;;;27.24;17.92
11415;BME280;5763;42.714;23.244;2023-02-22T12:51:28;94308.84;;;26.98;17.51
11415;BME280;5763;42.714;23.244;2023-02-22T12:54:04;94308.88;;;26.90;17.39
11415;BME280;5763;42.714;23.244;2023-02-22T12:56:38;94311.31;;;26.94;17.58
11415;BME280;5763;42.714;23.244;2023-02-22T12:59:11;94306.63;;;26.89;17.13
11415;BME280;5763;42.714;23.244;2023-02-22T13:01:43;94308.72;;;26.81;16.93
11415;BME280;5763;42.714;23.244;2023-02-22T13:04:11;94313.22;;;26.69;17.35
11415;BME280;5763;42.714;23.244;2023-02-22T13:06:44;94301.59;;;26.80;16.88
11415;BME280;5763;42.714;23.244;2023-02-22T13:09:39;94299.38;;;26.71;16.74
11415;BME280;5763;42.714;23.244;2023-02-22T13:12:15;94302.22;;;26.63;16.79
11415;BME280;5763;42.714;23.244;2023-02-22T13:14:56;94303.88;;;26.29;17.51
11415;BME280;5763;42.714;23.244;2023-02-22T13:17:33;94287.81;;;26.22;17.60
11415;BME280;5763;42.714;23.244;2023-02-22T13:20:09;94294.34;;;26.24;17.85
11415;BME280;5763;42.714;23.244;2023-02-22T13:22:44;94291.72;;;26.49;17.86
11415;BME280;5763;42.714;23.244;2023-02-22T13:25:17;94293.97;;;26.13;18.01